Richardson, Texas
Current Conditions -  °F | °C
As of 3:55 AM on Sunday 21 Dec 2014 (Local Time) from KADS Reporting Station
Overcast Overcast  
Wind Chill: 44°   Ceiling: 2800
Heat Index: 48°   Visibility: 10mi
Dew Point: 47°   Wind: 9mph
Humidity: 96%   Direction: 150°SSE
Pressure: 30.14"   Gusts: NA
Location:  32.96°N, 96.73°W
Report Text: KADS 210955Z AUTO 15008KT 10SM OVC028 09/08 A3014 RMK AO2 T00900084
Loading
Personal Weather Stations






























Interactive Weather Map New forecast layout! Learn more

10-Day Weather Forecast

Advertisements
Track Severe Weather on mobile